Time;durP1;ratioP1;P1;durP2;ratioP2;P2;SDS_P1;SDS_P2;PMS_P1;PMS_P2;Temp;Humidity;BMP_temperature;BMP_pressure;BME280_temperature;BME280_humidity;BME280_pressure;Samples;Min_cycle;Max_cycle;Signal;HPM_P1;HPM_P2
2023/06/25 00:00:12;;;;;;;8.25;6.10;;;15.30;99.90;;;;;;5073739;28;20070;-77
2023/06/25 00:02:37;;;;;;;7.53;6.03;;;15.30;99.90;;;;;;5075571;28;20020;-77
2023/06/25 00:05:03;;;;;;;9.00;6.88;;;15.30;99.90;;;;;;5077308;28;20044;-76
2023/06/25 00:07:29;;;;;;;7.88;6.53;;;15.20;99.90;;;;;;5077444;28;20289;-75
2023/06/25 00:09:55;;;;;;;9.93;6.80;;;15.20;99.90;;;;;;5078220;28;20032;-78
2023/06/25 00:12:22;;;;;;;10.88;6.90;;;15.20;99.90;;;;;;5075552;28;20112;-75
2023/06/25 00:14:48;;;;;;;9.57;6.60;;;15.20;99.90;;;;;;5072472;28;20490;-76
2023/06/25 00:17:17;;;;;;;6.90;5.38;;;15.20;99.90;;;;;;5075872;28;20032;-77
2023/06/25 00:19:44;;;;;;;8.13;5.90;;;15.10;99.90;;;;;;5075994;28;20023;-77
2023/06/25 00:22:11;;;;;;;9.40;6.57;;;15.10;99.90;;;;;;5074041;28;20042;-77
2023/06/25 00:24:40;;;;;;;11.55;6.75;;;15.10;99.90;;;;;;5069196;28;20027;-76
2023/06/25 00:27:06;;;;;;;7.68;5.95;;;15.10;99.90;;;;;;5075293;28;20054;-77
2023/06/25 00:29:33;;;;;;;10.43;6.72;;;15.10;99.90;;;;;;5072209;28;20692;-76
2023/06/25 00:31:59;;;;;;;8.68;6.93;;;15.10;99.90;;;;;;5071019;28;20033;-77
2023/06/25 00:34:24;;;;;;;9.70;6.93;;;15.10;99.90;;;;;;5065010;28;20492;-76
2023/06/25 00:36:53;;;;;;;12.95;7.25;;;15.10;99.90;;;;;;5073095;28;21077;-76
2023/06/25 00:39:19;;;;;;;9.90;7.35;;;15.10;99.90;;;;;;5076521;28;20102;-77
2023/06/25 00:41:45;;;;;;;10.90;7.57;;;15.10;99.90;;;;;;5078241;28;20024;-76
2023/06/25 00:44:11;;;;;;;10.57;7.38;;;15.00;99.90;;;;;;5072065;28;20063;-76
2023/06/25 00:46:36;;;;;;;10.77;7.75;;;15.00;99.90;;;;;;5066088;28;20411;-76
2023/06/25 00:49:06;;;;;;;11.98;7.97;;;14.90;99.90;;;;;;5073039;28;20024;-76
2023/06/25 00:51:34;;;;;;;12.55;9.43;;;15.00;99.90;;;;;;5074344;28;20036;-76
2023/06/25 00:54:01;;;;;;;15.65;10.40;;;15.00;99.90;;;;;;5070941;28;20025;-77
2023/06/25 00:56:29;;;;;;;17.10;11.63;;;14.90;99.90;;;;;;5072707;28;20437;-77
2023/06/25 00:59:00;;;;;;;17.05;10.82;;;14.90;99.90;;;;;;5074523;28;20051;-77
2023/06/25 01:01:41;;;;;;;15.73;11.25;;;14.90;99.90;;;;;;5075066;28;20031;-76
2023/06/25 01:04:14;;;;;;;17.10;11.50;;;15.00;99.90;;;;;;5073483;28;20054;-76
2023/06/25 01:06:47;;;;;;;17.55;11.63;;;14.90;99.90;;;;;;5078270;28;20079;-76
2023/06/25 01:09:14;;;;;;;17.40;10.20;;;15.00;99.90;;;;;;5063425;28;20028;-77
2023/06/25 01:11:39;;;;;;;12.18;9.02;;;15.00;99.90;;;;;;5070641;28;20044;-76
2023/06/25 01:14:05;;;;;;;11.23;8.60;;;15.00;99.90;;;;;;5071355;28;20580;-76
2023/06/25 01:16:31;;;;;;;10.98;7.88;;;15.00;99.90;;;;;;5072929;28;20681;-76
2023/06/25 01:19:02;;;;;;;10.00;7.55;;;15.00;99.90;;;;;;5071502;28;20036;-76
2023/06/25 01:21:28;;;;;;;10.05;8.00;;;15.00;99.90;;;;;;5074533;28;20028;-77
2023/06/25 01:23:54;;;;;;;10.82;7.43;;;14.90;99.90;;;;;;5071507;28;20466;-76
2023/06/25 01:26:20;;;;;;;8.90;7.43;;;14.90;99.90;;;;;;5073196;28;20062;-78
2023/06/25 01:28:45;;;;;;;9.30;7.05;;;14.90;99.90;;;;;;5070957;28;20134;-76
2023/06/25 01:31:11;;;;;;;9.57;6.88;;;14.90;99.90;;;;;;5074584;28;20867;-78
2023/06/25 01:33:38;;;;;;;9.50;7.10;;;14.90;99.90;;;;;;5063983;28;20475;-76
2023/06/25 01:36:04;;;;;;;9.35;7.30;;;14.90;99.90;;;;;;5071494;28;20126;-76
2023/06/25 01:38:30;;;;;;;10.70;7.40;;;14.90;99.90;;;;;;5071685;28;20031;-76
2023/06/25 01:40:56;;;;;;;10.90;7.13;;;14.90;99.90;;;;;;5072029;28;20540;-76
2023/06/25 01:43:21;;;;;;;8.45;6.70;;;14.90;99.90;;;;;;5076083;28;20066;-76
2023/06/25 01:45:47;;;;;;;11.02;7.03;;;14.80;99.90;;;;;;5075072;28;20036;-76
2023/06/25 01:48:13;;;;;;;11.48;7.35;;;14.70;99.90;;;;;;5080650;28;20099;-77
2023/06/25 01:50:39;;;;;;;10.25;6.47;;;14.70;99.90;;;;;;5069984;28;20383;-76
2023/06/25 01:53:05;;;;;;;10.10;8.15;;;14.60;99.90;;;;;;5070600;28;20026;-77
2023/06/25 01:55:30;;;;;;;11.55;8.65;;;14.70;99.90;;;;;;5072367;28;20028;-77
2023/06/25 01:57:56;;;;;;;12.13;8.85;;;14.60;99.90;;;;;;5067070;28;20032;-75
2023/06/25 02:00:23;;;;;;;12.20;8.43;;;14.60;99.90;;;;;;5067685;28;20183;-77
2023/06/25 02:02:48;;;;;;;11.20;8.10;;;14.50;99.90;;;;;;5071888;28;20035;-76
2023/06/25 02:05:14;;;;;;;11.40;8.30;;;14.50;99.90;;;;;;5089167;27;20082;-77
2023/06/25 02:07:40;;;;;;;11.35;7.97;;;14.50;99.90;;;;;;5069544;28;20032;-76
2023/06/25 02:10:06;;;;;;;10.18;8.07;;;14.50;99.90;;;;;;5074726;28;20028;-77
2023/06/25 02:12:31;;;;;;;9.90;7.88;;;14.50;99.90;;;;;;5074452;28;20032;-76
2023/06/25 02:14:57;;;;;;;10.07;6.60;;;14.60;99.90;;;;;;5073844;28;20316;-76
2023/06/25 02:17:22;;;;;;;8.05;6.20;;;14.60;99.90;;;;;;5072948;28;20032;-77
2023/06/25 02:19:48;;;;;;;8.25;6.03;;;14.60;99.90;;;;;;5077170;28;20111;-77
2023/06/25 02:22:14;;;;;;;8.73;6.15;;;14.50;99.90;;;;;;5074314;28;20252;-76
2023/06/25 02:24:39;;;;;;;6.13;5.53;;;14.50;99.90;;;;;;5077453;28;20028;-76
2023/06/25 02:27:05;;;;;;;7.97;5.90;;;14.50;99.90;;;;;;5076231;28;20035;-77
2023/06/25 02:29:31;;;;;;;6.68;5.75;;;14.40;99.90;;;;;;5075852;28;20024;-76
2023/06/25 02:31:57;;;;;;;7.03;5.40;;;14.40;99.90;;;;;;5075537;28;20038;-77
2023/06/25 02:34:22;;;;;;;9.05;5.50;;;14.40;99.90;;;;;;5074971;28;20034;-77
2023/06/25 02:36:50;;;;;;;7.75;5.50;;;14.40;99.90;;;;;;5079816;28;20105;-77
2023/06/25 02:39:15;;;;;;;6.63;5.70;;;14.30;99.90;;;;;;5082096;28;20099;-76
2023/06/25 02:41:41;;;;;;;7.20;4.88;;;14.30;99.90;;;;;;5076410;28;20218;-76
2023/06/25 02:44:06;;;;;;;8.73;5.10;;;14.30;99.90;;;;;;5073690;28;20437;-77
2023/06/25 02:46:32;;;;;;;6.00;4.97;;;14.30;99.90;;;;;;5079230;28;20043;-77
2023/06/25 02:48:58;;;;;;;6.70;4.82;;;14.30;99.90;;;;;;5076652;28;20020;-76
2023/06/25 02:51:24;;;;;;;6.80;4.60;;;14.30;99.90;;;;;;5076833;28;20032;-76
2023/06/25 02:53:49;;;;;;;8.70;4.90;;;14.20;99.90;;;;;;5074696;28;20032;-76
2023/06/25 02:56:15;;;;;;;7.30;4.63;;;14.20;99.90;;;;;;5075003;28;20028;-76
2023/06/25 02:58:40;;;;;;;6.85;5.28;;;14.20;99.90;;;;;;5072573;28;20020;-76
2023/06/25 03:01:06;;;;;;;7.95;5.00;;;14.20;99.90;;;;;;5072495;28;20028;-77
2023/06/25 03:03:32;;;;;;;7.05;4.88;;;14.10;99.90;;;;;;5071880;28;20028;-77
2023/06/25 03:05:57;;;;;;;7.40;4.57;;;14.10;99.90;;;;;;5076937;28;20048;-77
2023/06/25 03:08:24;;;;;;;5.03;3.83;;;14.10;99.90;;;;;;5077271;28;20106;-76
2023/06/25 03:10:50;;;;;;;7.22;4.60;;;14.10;99.90;;;;;;5077195;28;20104;-75
2023/06/25 03:13:15;;;;;;;5.85;4.68;;;14.10;99.90;;;;;;5078707;28;20039;-76
2023/06/25 03:15:41;;;;;;;6.40;4.68;;;14.10;99.90;;;;;;5070621;28;20044;-75
2023/06/25 03:18:06;;;;;;;6.15;4.20;;;14.00;99.90;;;;;;5077818;28;20035;-76
2023/06/25 03:20:32;;;;;;;6.80;4.35;;;14.00;99.90;;;;;;5078685;28;20127;-76
2023/06/25 03:22:58;;;;;;;7.50;4.40;;;14.00;99.90;;;;;;5076666;28;20409;-77
2023/06/25 03:25:23;;;;;;;6.60;4.53;;;14.00;99.90;;;;;;5076028;28;20072;-76
2023/06/25 03:27:49;;;;;;;7.20;4.30;;;13.90;99.90;;;;;;5069822;28;20040;-76
2023/06/25 03:30:14;;;;;;;6.10;4.30;;;14.00;99.90;;;;;;5070773;28;20331;-77
2023/06/25 03:32:41;;;;;;;5.00;3.80;;;13.90;99.90;;;;;;5072021;28;20506;-76
2023/06/25 03:35:07;;;;;;;5.53;4.10;;;13.90;99.90;;;;;;5065940;28;20040;-76
2023/06/25 03:37:33;;;;;;;4.60;3.90;;;13.90;99.90;;;;;;5075255;28;20036;-77
2023/06/25 03:39:58;;;;;;;5.90;3.67;;;13.80;99.90;;;;;;5070581;28;20033;-77
2023/06/25 03:42:24;;;;;;;8.57;4.55;;;13.80;99.90;;;;;;5076053;28;20057;-77
2023/06/25 03:44:54;;;;;;;7.00;4.60;;;13.80;99.90;;;;;;5064241;28;20062;-76
2023/06/25 03:47:19;;;;;;;6.43;4.60;;;13.80;99.90;;;;;;5081475;28;20063;-76
2023/06/25 03:49:45;;;;;;;6.10;4.30;;;13.80;99.90;;;;;;5076754;28;20062;-76
2023/06/25 03:52:11;;;;;;;5.75;4.45;;;13.80;99.90;;;;;;5075281;28;20032;-76
2023/06/25 03:54:36;;;;;;;5.43;4.00;;;13.80;99.90;;;;;;5075689;28;20028;-77
2023/06/25 03:57:02;;;;;;;4.72;3.65;;;13.80;99.90;;;;;;5075883;28;20580;-76
2023/06/25 03:59:28;;;;;;;5.55;3.88;;;13.80;99.90;;;;;;5071408;28;20036;-76
2023/06/25 04:01:54;;;;;;;4.75;3.70;;;13.80;99.90;;;;;;5073789;28;20119;-76
2023/06/25 04:04:19;;;;;;;4.05;3.38;;;13.80;99.90;;;;;;5079783;28;20453;-78
2023/06/25 04:06:45;;;;;;;4.35;3.50;;;13.90;99.90;;;;;;5077511;28;20113;-78
2023/06/25 04:09:11;;;;;;;4.80;3.17;;;13.90;99.90;;;;;;5077008;28;20099;-78
2023/06/25 04:11:36;;;;;;;4.75;3.95;;;13.90;99.90;;;;;;5078554;28;20020;-77
2023/06/25 04:14:02;;;;;;;4.32;3.53;;;13.90;99.90;;;;;;5072151;28;20631;-76
2023/06/25 04:16:27;;;;;;;4.90;3.50;;;13.90;99.90;;;;;;5073809;28;20031;-78
2023/06/25 04:18:53;;;;;;;4.78;3.80;;;13.90;99.90;;;;;;5073590;28;20484;-78
2023/06/25 04:21:19;;;;;;;5.07;3.80;;;13.90;99.90;;;;;;5075099;28;20032;-77
2023/06/25 04:23:45;;;;;;;4.43;3.55;;;14.00;99.90;;;;;;5075046;28;20469;-77
2023/06/25 04:26:10;;;;;;;5.10;3.40;;;14.00;99.90;;;;;;5077494;28;20048;-78
2023/06/25 04:28:36;;;;;;;5.00;3.40;;;14.00;99.90;;;;;;5073106;28;20557;-78
2023/06/25 04:31:01;;;;;;;4.18;3.42;;;14.00;99.90;;;;;;5072542;28;20032;-78
2023/06/25 04:33:27;;;;;;;4.32;3.30;;;14.10;99.90;;;;;;5072483;28;20645;-78
2023/06/25 04:35:53;;;;;;;6.72;4.00;;;14.10;99.90;;;;;;5074139;28;20243;-78
2023/06/25 04:38:18;;;;;;;3.97;3.40;;;14.10;99.90;;;;;;5075260;28;20093;-78
2023/06/25 04:40:44;;;;;;;5.85;3.97;;;14.20;99.90;;;;;;5070316;28;20546;-77
2023/06/25 04:43:10;;;;;;;4.15;3.55;;;14.20;99.90;;;;;;5074115;28;20101;-78
2023/06/25 04:45:35;;;;;;;4.18;3.53;;;14.20;99.90;;;;;;5072448;28;20043;-78
2023/06/25 04:48:01;;;;;;;5.18;4.18;;;14.30;99.90;;;;;;5070046;28;20423;-78
2023/06/25 04:50:26;;;;;;;4.72;3.60;;;14.40;99.90;;;;;;5073255;28;20438;-77
2023/06/25 04:52:55;;;;;;;5.38;3.50;;;14.40;99.90;;;;;;5075817;28;20110;-78
2023/06/25 04:55:21;;;;;;;4.60;3.40;;;14.50;99.90;;;;;;5081110;28;20386;-78
2023/06/25 04:57:46;;;;;;;4.32;3.45;;;14.60;99.90;;;;;;5076233;28;20032;-78
2023/06/25 05:00:13;;;;;;;4.00;2.90;;;14.60;99.90;;;;;;5074704;28;20031;-78
2023/06/25 05:02:38;;;;;;;4.90;3.45;;;14.70;99.90;;;;;;5071003;28;20126;-78
2023/06/25 05:05:04;;;;;;;4.97;3.38;;;14.80;99.90;;;;;;5066544;28;20159;-77
2023/06/25 05:07:30;;;;;;;6.53;3.50;;;14.90;99.90;;;;;;5074999;28;20032;-78
2023/06/25 05:09:55;;;;;;;4.82;3.20;;;15.00;99.90;;;;;;5076601;28;20032;-78
2023/06/25 05:12:21;;;;;;;4.38;2.70;;;15.10;99.90;;;;;;5079701;28;20044;-78
2023/06/25 05:14:46;;;;;;;6.78;3.03;;;15.20;99.90;;;;;;5068542;28;20013;-77
2023/06/25 05:17:12;;;;;;;3.55;2.90;;;15.30;99.90;;;;;;5075942;28;20056;-77
2023/06/25 05:19:38;;;;;;;5.43;3.40;;;15.40;99.90;;;;;;5079226;28;20043;-79
2023/06/25 05:22:05;;;;;;;5.90;3.50;;;15.50;99.90;;;;;;5074725;28;20024;-78
2023/06/25 05:24:30;;;;;;;5.10;3.78;;;15.50;99.90;;;;;;5073921;28;20669;-77
2023/06/25 05:26:56;;;;;;;5.72;4.00;;;15.70;99.90;;;;;;5076732;28;20274;-76
2023/06/25 05:29:22;;;;;;;6.18;3.80;;;15.80;99.90;;;;;;5075230;28;20023;-78
2023/06/25 05:31:47;;;;;;;8.05;4.53;;;15.90;99.90;;;;;;5079150;28;20032;-78
2023/06/25 05:34:13;;;;;;;8.32;4.80;;;15.90;99.90;;;;;;5085542;22;20044;-76
2023/06/25 05:36:39;;;;;;;6.95;4.82;;;16.10;99.90;;;;;;5077799;28;20055;-75
2023/06/25 05:39:04;;;;;;;10.45;5.03;;;16.20;99.90;;;;;;5064957;28;20123;-75
2023/06/25 05:41:30;;;;;;;7.10;4.90;;;16.30;99.90;;;;;;5080127;28;20154;-76
2023/06/25 05:43:56;;;;;;;6.40;4.82;;;16.40;99.90;;;;;;5077199;28;20028;-77
2023/06/25 05:46:21;;;;;;;11.00;5.50;;;16.50;99.90;;;;;;5080301;28;20028;-76
2023/06/25 05:48:47;;;;;;;7.93;4.85;;;16.60;99.90;;;;;;5079441;28;20028;-75
2023/06/25 05:51:13;;;;;;;8.65;5.40;;;16.70;99.90;;;;;;5079186;28;20384;-74
2023/06/25 05:53:43;;;;;;;7.68;5.63;;;16.70;99.90;;;;;;5077384;28;20289;-75
2023/06/25 05:56:09;;;;;;;9.98;6.30;;;16.80;99.90;;;;;;5077805;28;20502;-73
2023/06/25 05:58:36;;;;;;;8.80;5.93;;;16.90;99.90;;;;;;5078631;28;20035;-76
2023/06/25 06:01:03;;;;;;;8.30;5.95;;;17.00;99.90;;;;;;5077428;28;20028;-75
2023/06/25 06:03:28;;;;;;;11.10;6.38;;;17.20;99.90;;;;;;5084150;28;20043;-75
2023/06/25 06:05:56;;;;;;;9.98;6.10;;;17.30;99.90;;;;;;5092054;28;20043;-76
2023/06/25 06:08:22;;;;;;;8.50;6.40;;;17.40;99.90;;;;;;5080388;28;20023;-76
2023/06/25 06:10:48;;;;;;;9.50;6.00;;;17.50;99.90;;;;;;5078656;28;20817;-75
2023/06/25 06:13:14;;;;;;;8.88;6.32;;;17.60;99.90;;;;;;5078673;28;20032;-75
2023/06/25 06:15:40;;;;;;;8.05;5.95;;;17.80;99.90;;;;;;5079177;28;20038;-76
2023/06/25 06:18:05;;;;;;;9.27;6.63;;;18.00;99.90;;;;;;5075216;28;20137;-75
2023/06/25 06:20:31;;;;;;;7.07;5.95;;;18.10;99.90;;;;;;5076700;28;20457;-74
2023/06/25 06:22:58;;;;;;;9.65;6.18;;;18.20;99.90;;;;;;5077062;28;20095;-75
2023/06/25 06:25:24;;;;;;;8.23;5.90;;;18.50;99.90;;;;;;5075938;28;20067;-75
2023/06/25 06:27:49;;;;;;;9.63;6.35;;;18.70;99.90;;;;;;5070698;28;20066;-75
2023/06/25 06:30:15;;;;;;;12.93;6.22;;;18.80;99.90;;;;;;5073488;28;20104;-76
2023/06/25 06:32:41;;;;;;;11.25;6.82;;;18.90;99.90;;;;;;5075300;28;20047;-75
2023/06/25 06:35:06;;;;;;;10.00;6.40;;;19.00;99.90;;;;;;5079002;28;20052;-75
2023/06/25 06:37:32;;;;;;;11.65;5.75;;;19.20;99.90;;;;;;5085953;28;20028;-75
2023/06/25 06:39:58;;;;;;;9.63;5.55;;;19.30;99.90;;;;;;5081391;28;20080;-75
2023/06/25 06:42:23;;;;;;;10.32;5.32;;;19.40;99.90;;;;;;5077248;28;20027;-76
2023/06/25 06:44:49;;;;;;;6.57;5.18;;;19.50;99.90;;;;;;5078523;28;20043;-75
2023/06/25 06:47:15;;;;;;;11.75;5.68;;;19.70;99.90;;;;;;5075756;28;20465;-75
2023/06/25 06:49:40;;;;;;;7.63;5.75;;;19.80;99.90;;;;;;5074307;28;20111;-76
2023/06/25 06:52:06;;;;;;;6.63;4.70;;;20.00;99.90;;;;;;5074049;28;20087;-75
2023/06/25 06:54:32;;;;;;;9.55;5.63;;;20.10;99.90;;;;;;5075727;28;20075;-75
2023/06/25 06:56:58;;;;;;;8.05;4.97;;;20.20;99.90;;;;;;5067857;28;20031;-75
2023/06/25 06:59:23;;;;;;;6.32;4.50;;;20.30;99.90;;;;;;5065639;28;20039;-74
2023/06/25 07:01:49;;;;;;;6.97;4.68;;;20.40;99.90;;;;;;5062084;28;20032;-74
2023/06/25 07:04:15;;;;;;;8.27;5.00;;;20.60;99.90;;;;;;5067667;28;20042;-74
2023/06/25 07:06:41;;;;;;;9.90;5.32;;;20.80;99.90;;;;;;5073193;28;20812;-73
2023/06/25 07:09:06;;;;;;;7.00;4.65;;;20.80;99.90;;;;;;5071731;28;20035;-76
2023/06/25 07:11:32;;;;;;;5.75;4.50;;;20.90;99.90;;;;;;5073053;28;20040;-74
2023/06/25 07:13:57;;;;;;;6.75;4.22;;;21.10;99.90;;;;;;5072546;28;20032;-73
2023/06/25 07:16:23;;;;;;;10.43;5.25;;;21.20;99.90;;;;;;5066946;28;20031;-73
2023/06/25 07:18:49;;;;;;;7.72;4.35;;;21.30;99.90;;;;;;5070406;28;20028;-73
2023/06/25 07:21:15;;;;;;;7.20;4.35;;;21.50;99.90;;;;;;5074880;28;20535;-74
2023/06/25 07:23:40;;;;;;;6.50;4.43;;;21.60;99.90;;;;;;5064254;28;20063;-73
2023/06/25 07:26:06;;;;;;;7.18;4.05;;;21.80;99.90;;;;;;5064309;28;20094;-74
2023/06/25 07:28:31;;;;;;;5.30;4.60;;;22.10;99.90;;;;;;5064966;28;20035;-74
2023/06/25 07:30:57;;;;;;;6.55;4.45;;;22.60;99.90;;;;;;5064174;28;20259;-73
2023/06/25 07:33:23;;;;;;;4.50;3.50;;;24.00;99.90;;;;;;5076956;28;20082;-73
2023/06/25 07:35:48;;;;;;;6.28;3.10;;;26.60;99.90;;;;;;5067730;28;20032;-74
2023/06/25 07:38:14;;;;;;;3.03;2.50;;;29.80;99.90;;;;;;5067714;28;20017;-74
2023/06/25 07:40:39;;;;;;;3.58;2.58;;;32.30;99.90;;;;;;5078430;28;20051;-74
2023/06/25 07:43:05;;;;;;;3.95;2.60;;;34.00;88.60;;;;;;5076240;28;20103;-75
2023/06/25 07:45:31;;;;;;;3.78;2.55;;;35.80;71.40;;;;;;5076086;28;20120;-74
2023/06/25 07:47:56;;;;;;;2.72;2.25;;;37.20;64.80;;;;;;5075624;28;20040;-74
2023/06/25 07:50:22;;;;;;;4.72;2.30;;;37.80;58.30;;;;;;5078201;28;20047;-74
2023/06/25 07:52:47;;;;;;;2.88;2.13;;;38.90;57.40;;;;;;5078155;28;20031;-74
2023/06/25 07:55:13;;;;;;;3.92;2.40;;;39.90;52.10;;;;;;5071868;28;20028;-73
2023/06/25 07:57:39;;;;;;;4.88;2.20;;;40.60;49.40;;;;;;5070424;28;20058;-74
2023/06/25 08:00:06;;;;;;;4.28;2.45;;;41.00;46.50;;;;;;5072558;28;20087;-74
2023/06/25 08:02:31;;;;;;;2.63;2.10;;;41.30;44.70;;;;;;5068728;28;20024;-73
2023/06/25 08:04:57;;;;;;;3.38;2.20;;;41.50;42.90;;;;;;5066552;28;20105;-74
2023/06/25 08:07:23;;;;;;;3.65;2.35;;;42.30;43.70;;;;;;5070184;28;20037;-74
2023/06/25 08:09:49;;;;;;;2.35;2.15;;;42.60;42.40;;;;;;5065718;28;20215;-74
2023/06/25 08:12:15;;;;;;;3.67;2.03;;;42.50;40.20;;;;;;5056858;28;20144;-74
2023/06/25 08:14:40;;;;;;;3.55;2.20;;;42.50;41.00;;;;;;5064187;28;20370;-74
2023/06/25 08:17:06;;;;;;;3.08;2.35;;;42.00;39.30;;;;;;5072031;28;20091;-73
2023/06/25 08:19:32;;;;;;;2.72;2.22;;;42.50;40.30;;;;;;5065039;28;20456;-73
2023/06/25 08:21:57;;;;;;;3.47;2.00;;;43.00;39.30;;;;;;5063062;28;20076;-74
2023/06/25 08:24:23;;;;;;;3.38;2.45;;;42.80;39.80;;;;;;5076981;28;20032;-75
2023/06/25 08:26:50;;;;;;;2.33;2.03;;;42.50;38.20;;;;;;5072834;28;20052;-73
2023/06/25 08:29:15;;;;;;;3.72;2.03;;;42.50;39.80;;;;;;5068259;28;20494;-73
2023/06/25 08:31:41;;;;;;;4.38;2.50;;;42.50;36.30;;;;;;5068539;28;20048;-73
2023/06/25 08:34:07;;;;;;;3.47;2.40;;;41.80;38.80;;;;;;5065622;28;20557;-75
2023/06/25 08:36:33;;;;;;;3.00;2.20;;;41.90;38.50;;;;;;5074693;28;20028;-74
2023/06/25 08:38:58;;;;;;;3.08;1.98;;;42.20;38.80;;;;;;5060718;28;20075;-72
2023/06/25 08:41:26;;;;;;;4.07;2.10;;;42.60;37.80;;;;;;5069063;28;20049;-72
2023/06/25 08:43:53;;;;;;;3.67;2.25;;;43.20;38.00;;;;;;5073923;28;20027;-74
2023/06/25 08:46:24;;;;;;;3.67;2.13;;;43.30;36.80;;;;;;5070101;28;20032;-72
2023/06/25 08:48:54;;;;;;;3.38;2.00;;;44.10;37.40;;;;;;5075855;28;20040;-72
2023/06/25 08:51:24;;;;;;;4.15;2.08;;;44.70;37.70;;;;;;5071715;28;20028;-71
2023/06/25 08:53:50;;;;;;;3.88;2.33;;;44.90;35.70;;;;;;5074527;28;20639;-71
2023/06/25 08:56:16;;;;;;;5.10;2.28;;;44.80;33.40;;;;;;5074326;28;20028;-72
2023/06/25 08:58:42;;;;;;;2.92;2.20;;;44.80;35.90;;;;;;5071183;28;20032;-72
2023/06/25 09:01:09;;;;;;;2.50;2.30;;;45.30;36.70;;;;;;5074808;28;20040;-72
2023/06/25 09:03:34;;;;;;;3.97;2.20;;;46.00;35.80;;;;;;5069396;28;20032;-73
2023/06/25 09:06:00;;;;;;;4.72;2.40;;;46.60;33.10;;;;;;5066314;28;20037;-73
2023/06/25 09:08:27;;;;;;;3.17;2.10;;;47.10;35.00;;;;;;5070724;28;20394;-73
2023/06/25 09:10:55;;;;;;;2.70;2.15;;;47.10;33.90;;;;;;5079503;28;20476;-74
2023/06/25 09:13:26;;;;;;;4.07;2.30;;;47.10;33.40;;;;;;5066682;28;20039;-75
2023/06/25 09:15:53;;;;;;;2.90;1.90;;;47.20;31.70;;;;;;5071618;28;20031;-73
2023/06/25 09:18:21;;;;;;;3.15;2.22;;;46.40;32.20;;;;;;5069933;28;20116;-76
2023/06/25 09:20:50;;;;;;;3.55;2.45;;;46.80;31.70;;;;;;5070771;28;20035;-76
2023/06/25 09:23:20;;;;;;;2.78;2.25;;;46.90;31.00;;;;;;5064726;28;20032;-75
2023/06/25 09:25:46;;;;;;;3.53;2.28;;;46.00;30.90;;;;;;5071717;28;20032;-75
2023/06/25 09:28:12;;;;;;;3.38;2.10;;;45.50;32.70;;;;;;5070793;28;20397;-75
2023/06/25 09:30:40;;;;;;;4.18;2.20;;;45.80;31.80;;;;;;5069272;28;21022;-75
2023/06/25 09:33:08;;;;;;;2.50;2.10;;;46.20;32.50;;;;;;5070701;28;20032;-76
2023/06/25 09:35:34;;;;;;;4.97;2.42;;;46.00;33.00;;;;;;5071352;28;22643;-75
2023/06/25 09:38:00;;;;;;;6.25;2.67;;;45.80;32.10;;;;;;5076358;28;20188;-78
2023/06/25 09:40:26;;;;;;;4.65;2.35;;;45.60;31.30;;;;;;5076547;28;20036;-77
2023/06/25 09:42:56;;;;;;;3.13;2.50;;;44.50;33.60;;;;;;5071318;28;20360;-75
2023/06/25 09:45:23;;;;;;;3.17;2.30;;;44.30;32.70;;;;;;5077039;28;20036;-76
2023/06/25 09:47:51;;;;;;;2.92;2.13;;;44.00;32.20;;;;;;5075074;28;20570;-76
2023/06/25 09:50:48;;;;;;;2.30;2.10;;;44.40;31.60;;;;;;5073411;28;20032;-76
2023/06/25 09:53:21;;;;;;;4.65;2.20;;;44.70;31.70;;;;;;5066960;28;20691;-75
2023/06/25 09:55:47;;;;;;;2.60;2.20;;;45.00;31.30;;;;;;5076888;28;20827;-76
2023/06/25 09:58:14;;;;;;;4.22;2.50;;;43.20;34.20;;;;;;5075598;28;20035;-76
2023/06/25 10:00:40;;;;;;;6.72;2.58;;;43.80;33.60;;;;;;5071880;28;20078;-75
2023/06/25 10:03:07;;;;;;;3.25;2.20;;;42.00;31.80;;;;;;5078418;28;20084;-75
2023/06/25 10:05:33;;;;;;;6.78;2.30;;;41.30;34.70;;;;;;5078844;28;20032;-76
2023/06/25 10:07:59;;;;;;;3.47;2.30;;;41.70;35.00;;;;;;5077080;28;20075;-76
2023/06/25 10:10:34;;;;;;;3.58;2.53;;;41.90;34.60;;;;;;5075608;28;20119;-76
2023/06/25 10:13:05;;;;;;;3.78;2.20;;;42.90;34.70;;;;;;5077699;28;20028;-77
2023/06/25 10:15:35;;;;;;;3.35;2.25;;;43.20;34.80;;;;;;5070221;28;20039;-77
2023/06/25 10:18:10;;;;;;;4.88;2.58;;;44.40;32.90;;;;;;5066765;28;20027;-76
2023/06/25 10:20:37;;;;;;;3.88;2.40;;;45.10;31.90;;;;;;5069589;28;20117;-76
2023/06/25 10:23:10;;;;;;;7.18;2.38;;;45.20;33.30;;;;;;5067708;28;20505;-75
2023/06/25 10:25:39;;;;;;;4.55;2.58;;;45.70;30.50;;;;;;5062207;28;20082;-76
2023/06/25 10:28:10;;;;;;;4.07;2.20;;;45.40;33.20;;;;;;5062976;28;20027;-76
2023/06/25 10:30:47;;;;;;;3.58;2.60;;;44.50;32.90;;;;;;5064283;28;20024;-74
2023/06/25 10:33:19;;;;;;;2.55;2.13;;;44.10;31.40;;;;;;5066889;28;20056;-75
2023/06/25 10:35:54;;;;;;;4.47;2.60;;;44.00;34.00;;;;;;5076451;28;20020;-75
2023/06/25 10:38:20;;;;;;;4.30;2.50;;;42.30;33.20;;;;;;5070237;28;20039;-74
2023/06/25 10:40:46;;;;;;;3.20;2.13;;;42.20;34.80;;;;;;5072754;28;20028;-74
2023/06/25 10:43:19;;;;;;;6.18;2.75;;;42.30;35.40;;;;;;5073222;28;20036;-74
2023/06/25 10:45:56;;;;;;;3.75;2.38;;;42.70;32.90;;;;;;5069302;28;20093;-75
2023/06/25 10:48:23;;;;;;;3.45;2.25;;;43.10;34.10;;;;;;5069419;28;20024;-74
2023/06/25 10:50:50;;;;;;;3.60;2.38;;;44.10;34.80;;;;;;5069602;28;20028;-75
2023/06/25 10:53:17;;;;;;;5.25;2.38;;;43.50;33.60;;;;;;5080330;28;20020;-75
2023/06/25 10:55:44;;;;;;;3.28;2.47;;;43.40;35.10;;;;;;5074720;28;20028;-75
2023/06/25 10:58:13;;;;;;;2.67;2.40;;;43.30;32.30;;;;;;5070750;28;20461;-75
2023/06/25 11:00:39;;;;;;;3.17;2.25;;;42.70;33.30;;;;;;5055558;28;20039;-75
2023/06/25 11:03:04;;;;;;;2.90;2.25;;;42.00;34.40;;;;;;5056755;28;20020;-76
2023/06/25 11:05:35;;;;;;;4.35;2.50;;;43.20;36.30;;;;;;5073787;28;20097;-75
2023/06/25 11:08:04;;;;;;;5.22;2.70;;;42.20;33.90;;;;;;5076228;28;20085;-75
2023/06/25 11:10:31;;;;;;;3.35;2.30;;;41.80;33.60;;;;;;5078433;28;20388;-75
2023/06/25 11:12:57;;;;;;;3.72;2.60;;;40.10;34.90;;;;;;5073268;28;20393;-76
2023/06/25 11:15:23;;;;;;;4.00;2.95;;;39.80;37.90;;;;;;5073959;28;20028;-75
2023/06/25 11:17:52;;;;;;;3.33;2.47;;;39.80;36.90;;;;;;5075748;28;20024;-74
2023/06/25 11:20:22;;;;;;;3.42;2.53;;;40.20;36.70;;;;;;5067137;28;20057;-74
2023/06/25 11:22:48;;;;;;;4.63;2.58;;;39.30;37.40;;;;;;5066990;28;20024;-74
2023/06/25 11:25:14;;;;;;;4.15;2.78;;;40.40;36.40;;;;;;5072487;28;20028;-74
2023/06/25 11:27:40;;;;;;;2.85;2.53;;;40.60;38.30;;;;;;5065064;28;20035;-75
2023/06/25 11:30:08;;;;;;;3.55;2.75;;;40.10;38.40;;;;;;5061269;28;20032;-75
2023/06/25 11:32:35;;;;;;;2.40;2.17;;;39.20;38.00;;;;;;5065839;28;20047;-75
2023/06/25 11:35:10;;;;;;;3.63;2.83;;;37.50;41.80;;;;;;5063478;28;20040;-74
2023/06/25 11:37:49;;;;;;;4.93;2.80;;;35.90;44.20;;;;;;5083527;28;20024;-74
2023/06/25 11:40:28;;;;;;;4.80;3.00;;;35.20;43.90;;;;;;5077504;28;20019;-74
2023/06/25 11:42:55;;;;;;;7.27;3.40;;;33.90;45.30;;;;;;5078259;28;20063;-75
2023/06/25 11:45:21;;;;;;;3.80;3.03;;;33.50;49.50;;;;;;5089797;28;20028;-74
2023/06/25 11:47:53;;;;;;;5.00;2.97;;;33.30;47.00;;;;;;5064668;28;20031;-75
2023/06/25 11:50:21;;;;;;;6.63;3.20;;;33.50;50.10;;;;;;5077140;28;20107;-74
2023/06/25 11:52:47;;;;;;;4.95;3.03;;;33.10;49.80;;;;;;5074851;28;20427;-74
2023/06/25 11:55:13;;;;;;;3.63;3.10;;;32.80;51.10;;;;;;5069603;28;20760;-74
2023/06/25 11:57:40;;;;;;;3.70;3.08;;;32.30;50.00;;;;;;5074272;28;20032;-73
2023/06/25 12:00:07;;;;;;;3.05;2.75;;;32.40;52.90;;;;;;5071350;28;20051;-74
2023/06/25 12:02:33;;;;;;;5.57;3.03;;;32.50;51.90;;;;;;5073732;28;20032;-74
2023/06/25 12:04:58;;;;;;;4.47;3.10;;;32.30;54.90;;;;;;5071807;28;20923;-75
2023/06/25 12:07:24;;;;;;;4.93;3.13;;;32.20;53.90;;;;;;5068437;28;20192;-75
2023/06/25 12:09:50;;;;;;;6.90;3.53;;;31.40;51.60;;;;;;5058987;28;20114;-74
2023/06/25 12:12:15;;;;;;;3.58;3.25;;;30.60;57.90;;;;;;5057329;28;20115;-75
2023/06/25 12:14:41;;;;;;;3.70;3.30;;;30.30;56.80;;;;;;5052228;28;20074;-74
2023/06/25 12:17:07;;;;;;;5.78;3.40;;;30.10;61.40;;;;;;5055902;28;20142;-75
2023/06/25 12:19:33;;;;;;;3.25;2.95;;;30.30;62.10;;;;;;5058015;28;20048;-75
2023/06/25 12:21:58;;;;;;;3.95;3.20;;;31.00;69.40;;;;;;5056351;28;20031;-75
2023/06/25 12:24:24;;;;;;;4.68;3.53;;;32.30;63.10;;;;;;5056343;28;20028;-74
2023/06/25 12:26:50;;;;;;;4.50;3.40;;;33.10;57.20;;;;;;5059369;28;20448;-75
2023/06/25 12:29:16;;;;;;;5.75;3.08;;;33.10;54.80;;;;;;5060891;28;20052;-74
2023/06/25 12:31:41;;;;;;;4.00;3.20;;;32.60;57.20;;;;;;5060378;28;20593;-75
2023/06/25 12:34:07;;;;;;;4.53;3.17;;;32.20;53.70;;;;;;5059130;28;20048;-74
2023/06/25 12:36:32;;;;;;;5.05;3.05;;;32.00;55.60;;;;;;5064110;28;20021;-75
2023/06/25 12:39:00;;;;;;;5.32;3.10;;;32.00;59.70;;;;;;5071631;28;20039;-74
2023/06/25 12:41:26;;;;;;;4.60;3.20;;;32.10;61.70;;;;;;5072377;28;20100;-76